Time;durP1;ratioP1;P1;durP2;ratioP2;P2;SDS_P1;SDS_P2;PMS_P1;PMS_P2;Temp;Humidity;BMP_temperature;BMP_pressure;BME280_temperature;BME280_humidity;BME280_pressure;Samples;Min_cycle;Max_cycle;Signal;HPM_P1;HPM_P2
2022/02/25 00:01:44;;;;;;;80.15;37.65;;;-1.30;99.90;;;;;;5053857;28;20021;-87
2022/02/25 00:04:11;;;;;;;86.90;38.40;;;-1.30;99.90;;;;;;5052491;28;20440;-87
2022/02/25 00:06:38;;;;;;;87.90;38.35;;;-1.40;99.90;;;;;;5052803;28;20472;-86
2022/02/25 00:09:05;;;;;;;78.68;34.85;;;-1.40;99.90;;;;;;5053916;28;20032;-86
2022/02/25 00:11:31;;;;;;;77.53;34.38;;;-1.40;99.90;;;;;;5053002;28;20075;-86
2022/02/25 00:13:57;;;;;;;73.63;35.97;;;-1.50;99.90;;;;;;5052482;28;20025;-87
2022/02/25 00:16:23;;;;;;;81.47;35.17;;;-1.40;99.90;;;;;;5052862;28;20037;-86
2022/02/25 00:18:51;;;;;;;73.95;32.78;;;-1.50;99.90;;;;;;5053644;28;20082;-86
2022/02/25 00:21:17;;;;;;;64.00;31.50;;;-1.40;99.90;;;;;;5052794;28;20029;-86
2022/02/25 00:23:43;;;;;;;70.85;32.28;;;-1.50;99.90;;;;;;5053457;28;20045;-86
2022/02/25 00:26:09;;;;;;;74.35;33.40;;;-1.40;99.90;;;;;;5052572;28;20017;-86
2022/02/25 00:28:34;;;;;;;75.32;33.30;;;-1.50;99.90;;;;;;5052388;28;20017;-86
2022/02/25 00:31:02;;;;;;;62.50;31.08;;;-1.40;99.90;;;;;;5053714;28;20025;-86
2022/02/25 00:33:30;;;;;;;70.43;32.53;;;-1.40;99.90;;;;;;5052769;28;20037;-86
2022/02/25 00:35:56;;;;;;;82.05;34.97;;;-1.40;99.90;;;;;;5085995;28;20036;-87
2022/02/25 00:38:22;;;;;;;79.50;34.08;;;-1.40;99.90;;;;;;5052249;28;20028;-86
2022/02/25 00:40:47;;;;;;;73.50;33.30;;;-1.40;99.90;;;;;;5052209;28;20142;-86
2022/02/25 00:43:13;;;;;;;74.50;33.95;;;-1.50;99.90;;;;;;5052611;28;20056;-86
2022/02/25 00:45:39;;;;;;;82.40;35.53;;;-1.50;99.90;;;;;;5052429;28;20056;-87
2022/02/25 00:48:06;;;;;;;78.43;33.67;;;-1.50;99.90;;;;;;5055847;28;20021;-86
2022/02/25 00:50:32;;;;;;;81.47;35.20;;;-1.50;99.90;;;;;;5057251;28;20029;-86
2022/02/25 00:52:57;;;;;;;74.53;33.35;;;-1.60;99.90;;;;;;5055873;28;20095;-86
2022/02/25 00:55:23;;;;;;;63.83;30.83;;;-1.60;99.90;;;;;;5056247;28;20031;-86
2022/02/25 00:57:52;;;;;;;73.57;31.60;;;-1.60;99.90;;;;;;5039163;28;20125;-86
2022/02/25 01:00:20;;;;;;;69.10;29.65;;;-1.70;99.90;;;;;;5057031;28;20036;-86
2022/02/25 01:02:46;;;;;;;68.47;30.58;;;-1.70;99.90;;;;;;5039372;28;20032;-86
2022/02/25 01:05:12;;;;;;;65.18;30.45;;;-1.70;99.90;;;;;;5055841;28;20456;-86
2022/02/25 01:07:40;;;;;;;63.40;29.13;;;-1.70;99.90;;;;;;5055522;28;20060;-87
2022/02/25 01:10:07;;;;;;;65.05;30.40;;;-1.70;99.90;;;;;;5055486;28;20115;-87
2022/02/25 01:12:34;;;;;;;58.75;27.67;;;-1.70;99.90;;;;;;5039321;28;20025;-86
2022/02/25 01:15:00;;;;;;;57.17;26.25;;;-1.70;99.90;;;;;;5055719;28;20095;-87
2022/02/25 01:17:29;;;;;;;57.15;26.85;;;-1.70;99.90;;;;;;5055567;28;20108;-87
2022/02/25 01:19:58;;;;;;;53.40;25.08;;;-1.70;99.90;;;;;;5055411;28;20445;-87
2022/02/25 01:22:25;;;;;;;55.90;25.70;;;-1.70;99.90;;;;;;5056226;28;20071;-87
2022/02/25 01:24:51;;;;;;;50.72;24.95;;;-1.70;99.90;;;;;;5055865;28;20067;-87
2022/02/25 01:27:17;;;;;;;51.50;24.48;;;-1.70;99.90;;;;;;5055335;28;20025;-87
2022/02/25 01:29:43;;;;;;;49.58;23.10;;;-1.70;99.90;;;;;;5038979;28;20029;-87
2022/02/25 01:32:09;;;;;;;42.45;21.45;;;-1.70;99.90;;;;;;5056321;28;20021;-87
2022/02/25 01:34:35;;;;;;;37.72;18.92;;;-1.60;99.90;;;;;;5056096;28;20029;-87
2022/02/25 01:37:01;;;;;;;39.92;19.63;;;-1.60;99.90;;;;;;5055198;28;20082;-87
2022/02/25 01:39:28;;;;;;;36.45;19.02;;;-1.60;99.90;;;;;;5056611;28;20372;-87
2022/02/25 01:41:55;;;;;;;33.85;17.45;;;-1.60;99.90;;;;;;5056221;28;20021;-87
2022/02/25 01:44:23;;;;;;;38.22;18.23;;;-1.60;99.90;;;;;;5054784;28;20527;-87
2022/02/25 01:46:54;;;;;;;36.30;17.98;;;-1.60;99.90;;;;;;5054951;28;20485;-87
2022/02/25 01:49:21;;;;;;;34.38;16.75;;;-1.50;99.90;;;;;;5039177;28;20471;-87
2022/02/25 01:51:48;;;;;;;33.88;16.52;;;-1.50;99.90;;;;;;5056109;28;20024;-87
2022/02/25 01:54:16;;;;;;;36.83;17.77;;;-1.50;99.90;;;;;;5055841;28;20029;-87
2022/02/25 01:56:43;;;;;;;32.58;16.98;;;-1.50;99.90;;;;;;5054396;28;20387;-87
2022/02/25 01:59:11;;;;;;;30.55;15.57;;;-1.40;99.90;;;;;;5055352;28;20033;-87
2022/02/25 02:01:40;;;;;;;37.72;19.83;;;-1.50;99.90;;;;;;5054877;28;20074;-87
2022/02/25 02:04:09;;;;;;;31.27;16.20;;;-1.40;99.90;;;;;;5054697;28;20028;-87
2022/02/25 02:06:39;;;;;;;35.17;16.73;;;-1.40;99.90;;;;;;5055759;28;20025;-87
2022/02/25 02:09:06;;;;;;;34.58;17.08;;;-1.40;99.90;;;;;;5055840;28;20043;-87
2022/02/25 02:11:37;;;;;;;31.77;16.17;;;-1.40;99.90;;;;;;5037785;28;20472;-87
2022/02/25 02:14:06;;;;;;;32.70;15.88;;;-1.40;99.90;;;;;;5053546;28;20041;-87
2022/02/25 02:16:32;;;;;;;28.70;15.18;;;-1.40;99.90;;;;;;5053988;28;20045;-87
2022/02/25 02:18:58;;;;;;;30.13;14.85;;;-1.30;99.90;;;;;;5054553;28;20025;-87
2022/02/25 02:21:27;;;;;;;34.08;15.75;;;-1.30;99.90;;;;;;5054417;28;20533;-87
2022/02/25 02:23:57;;;;;;;29.25;15.10;;;-1.20;99.90;;;;;;5055423;28;20037;-88
2022/02/25 02:26:24;;;;;;;27.42;13.65;;;-1.20;99.90;;;;;;5054421;28;20043;-87
2022/02/25 02:28:51;;;;;;;28.77;13.15;;;-1.20;99.90;;;;;;5054574;28;20040;-88
2022/02/25 02:31:17;;;;;;;21.63;12.07;;;-1.20;99.90;;;;;;5054101;28;20025;-88
2022/02/25 02:33:44;;;;;;;25.95;12.57;;;-1.10;99.90;;;;;;5055389;28;20025;-88
2022/02/25 02:36:11;;;;;;;25.13;12.38;;;-1.10;99.90;;;;;;5054170;28;20083;-87
2022/02/25 02:38:39;;;;;;;25.05;12.38;;;-1.10;99.90;;;;;;5054809;28;20032;-87
2022/02/25 02:41:06;;;;;;;22.45;11.88;;;-1.00;99.90;;;;;;5053859;28;20025;-87
2022/02/25 02:43:33;;;;;;;22.48;12.30;;;-1.10;99.90;;;;;;5054116;28;20483;-87
2022/02/25 02:45:59;;;;;;;21.42;11.00;;;-1.10;99.90;;;;;;5053654;28;20040;-87
2022/02/25 02:48:25;;;;;;;17.40;10.70;;;-1.10;99.90;;;;;;5054122;28;20017;-87
2022/02/25 02:50:52;;;;;;;17.23;10.25;;;-1.10;99.90;;;;;;5055290;28;20375;-87
2022/02/25 02:53:19;;;;;;;20.60;11.55;;;-1.10;99.90;;;;;;5053725;28;20483;-87
2022/02/25 02:55:46;;;;;;;16.65;9.88;;;-1.10;99.90;;;;;;5053351;28;20035;-87
2022/02/25 02:58:12;;;;;;;17.70;10.23;;;-1.10;99.90;;;;;;5053388;28;20467;-87
2022/02/25 03:00:41;;;;;;;20.25;10.38;;;-1.00;99.90;;;;;;5053327;28;20139;-87
2022/02/25 03:03:08;;;;;;;18.40;10.73;;;-1.00;99.90;;;;;;5020646;28;20487;-87
2022/02/25 03:05:35;;;;;;;15.27;9.23;;;-1.00;99.90;;;;;;5054687;28;20048;-87
2022/02/25 03:08:01;;;;;;;15.63;9.10;;;-1.00;99.90;;;;;;5053511;28;20498;-87
2022/02/25 03:10:26;;;;;;;15.00;9.25;;;-1.00;99.90;;;;;;5052878;28;20021;-87
2022/02/25 03:12:53;;;;;;;16.35;9.30;;;-1.00;99.90;;;;;;5036854;28;20375;-87
2022/02/25 03:15:19;;;;;;;15.63;9.38;;;-1.00;99.90;;;;;;5053225;28;20025;-87
2022/02/25 03:17:45;;;;;;;13.07;8.45;;;-1.10;99.90;;;;;;5036437;28;20503;-87
2022/02/25 03:20:12;;;;;;;16.70;9.18;;;-1.10;99.90;;;;;;5053724;28;20036;-87
2022/02/25 03:22:38;;;;;;;14.07;8.40;;;-1.10;99.90;;;;;;5053122;28;20057;-87
2022/02/25 03:25:05;;;;;;;14.73;8.65;;;-1.10;99.90;;;;;;5036573;28;20116;-87
2022/02/25 03:27:31;;;;;;;16.08;8.68;;;-1.20;99.90;;;;;;5053066;28;20025;-87
2022/02/25 03:29:57;;;;;;;15.13;8.65;;;-1.20;99.90;;;;;;5053350;28;20391;-87
2022/02/25 03:32:24;;;;;;;16.20;9.73;;;-1.20;99.90;;;;;;5054166;28;20016;-87
2022/02/25 03:34:50;;;;;;;16.40;8.98;;;-1.30;99.90;;;;;;5052973;28;20078;-86
2022/02/25 03:37:17;;;;;;;16.17;9.00;;;-1.40;99.90;;;;;;5052939;28;20060;-87
2022/02/25 03:39:42;;;;;;;14.07;8.85;;;-1.40;99.90;;;;;;5052861;28;20534;-86
2022/02/25 03:42:08;;;;;;;14.13;8.60;;;-1.50;99.90;;;;;;5036345;28;20120;-86
2022/02/25 03:44:36;;;;;;;18.63;9.82;;;-1.50;99.90;;;;;;5054031;28;20039;-87
2022/02/25 03:47:02;;;;;;;14.90;9.07;;;-1.50;99.90;;;;;;5053071;28;20029;-87
2022/02/25 03:49:30;;;;;;;16.10;9.23;;;-1.60;99.90;;;;;;5036486;28;20059;-86
2022/02/25 03:51:56;;;;;;;16.05;9.40;;;-1.50;99.90;;;;;;5053450;28;20037;-86
2022/02/25 03:54:22;;;;;;;15.68;9.15;;;-1.60;99.90;;;;;;5036246;28;20032;-86
2022/02/25 03:56:48;;;;;;;13.80;8.48;;;-1.60;99.90;;;;;;5052721;28;20372;-87
2022/02/25 03:59:14;;;;;;;16.05;9.05;;;-1.60;99.90;;;;;;5052834;28;20071;-86
2022/02/25 04:01:40;;;;;;;17.63;9.82;;;-1.60;99.90;;;;;;5053891;28;20467;-86
2022/02/25 04:04:06;;;;;;;14.38;8.43;;;-1.60;99.90;;;;;;5053123;28;20067;-86
2022/02/25 04:06:33;;;;;;;14.85;8.80;;;-1.70;99.90;;;;;;5052942;28;20021;-86
2022/02/25 04:09:00;;;;;;;14.32;8.95;;;-1.70;99.90;;;;;;5053417;28;20486;-86
2022/02/25 04:11:25;;;;;;;14.50;8.25;;;-1.70;99.90;;;;;;5053911;28;20029;-86
2022/02/25 04:13:53;;;;;;;15.45;9.00;;;-1.70;99.90;;;;;;5053554;28;20079;-87
2022/02/25 04:16:20;;;;;;;16.15;9.20;;;-1.70;99.90;;;;;;5053203;28;20025;-86
2022/02/25 04:18:46;;;;;;;17.55;9.68;;;-1.70;99.90;;;;;;5052556;28;20032;-86
2022/02/25 04:21:13;;;;;;;18.13;9.68;;;-1.70;99.90;;;;;;5054438;28;20399;-86
2022/02/25 04:23:39;;;;;;;16.38;9.55;;;-1.70;99.90;;;;;;5056378;28;20056;-86
2022/02/25 04:26:05;;;;;;;15.35;9.60;;;-1.80;99.90;;;;;;5056184;28;20114;-86
2022/02/25 04:28:32;;;;;;;16.95;9.65;;;-1.80;99.90;;;;;;5055966;28;20021;-86
2022/02/25 04:30:58;;;;;;;17.92;9.85;;;-1.80;99.90;;;;;;5036513;28;20045;-86
2022/02/25 04:33:23;;;;;;;16.42;10.07;;;-1.90;99.90;;;;;;5037795;28;20538;-86
2022/02/25 04:35:49;;;;;;;16.48;9.63;;;-1.90;99.90;;;;;;5053271;28;20079;-86
2022/02/25 04:38:16;;;;;;;17.38;10.48;;;-1.90;99.90;;;;;;5036109;28;20476;-86
2022/02/25 04:40:43;;;;;;;17.67;10.45;;;-1.90;99.90;;;;;;5052694;28;20049;-86
2022/02/25 04:43:08;;;;;;;17.98;10.50;;;-1.90;99.90;;;;;;5052525;28;20087;-86
2022/02/25 04:45:34;;;;;;;19.40;10.68;;;-1.90;99.90;;;;;;5036236;28;20025;-86
2022/02/25 04:48:00;;;;;;;22.25;10.98;;;-1.90;99.90;;;;;;5037082;28;20426;-86
2022/02/25 04:50:26;;;;;;;19.73;11.32;;;-2.00;99.90;;;;;;5052596;28;20055;-86
2022/02/25 04:52:52;;;;;;;19.33;11.25;;;-2.00;99.90;;;;;;5055720;28;20025;-86
2022/02/25 04:55:19;;;;;;;20.13;11.30;;;-2.00;99.90;;;;;;5055797;28;20039;-86
2022/02/25 04:57:47;;;;;;;22.10;11.48;;;-2.10;99.90;;;;;;5055921;28;20025;-86
2022/02/25 05:00:16;;;;;;;18.48;11.48;;;-2.10;99.90;;;;;;5036069;28;20043;-86
2022/02/25 05:02:44;;;;;;;20.67;11.23;;;-2.10;99.90;;;;;;5068956;28;20061;-86
2022/02/25 05:05:10;;;;;;;20.33;11.52;;;-2.10;99.90;;;;;;5055039;28;20025;-86
2022/02/25 05:07:38;;;;;;;22.83;11.15;;;-2.00;99.90;;;;;;5036133;28;20045;-86
2022/02/25 05:10:05;;;;;;;20.30;11.30;;;-2.00;99.90;;;;;;5055469;28;20025;-86
2022/02/25 05:12:30;;;;;;;20.90;11.20;;;-2.00;99.90;;;;;;5055722;28;20025;-86
2022/02/25 05:20:25;;;;;;;22.13;11.82;;;-1.90;99.90;;;;;;5056118;28;20027;-87
2022/02/25 05:22:52;;;;;;;24.58;13.65;;;-1.80;99.90;;;;;;5022383;28;20045;-87
2022/02/25 05:25:19;;;;;;;24.45;12.57;;;-1.70;99.90;;;;;;5055143;28;20025;-88
2022/02/25 05:27:45;;;;;;;26.33;13.27;;;-1.70;99.90;;;;;;5055820;28;20043;-87
2022/02/25 05:30:12;;;;;;;24.70;13.15;;;-1.60;99.90;;;;;;5035102;28;20037;-88
2022/02/25 05:32:37;;;;;;;28.52;14.02;;;-1.50;99.90;;;;;;5035053;28;20032;-87
2022/02/25 05:35:08;;;;;;;23.52;12.35;;;-1.40;99.90;;;;;;5035189;28;20033;-87
2022/02/25 05:37:34;;;;;;;;;;;-1.20;99.90;;;;;;5035833;28;20033;-88
2022/02/25 05:39:59;;;;;;;20.55;10.07;;;-1.10;99.90;;;;;;5036344;28;19905;-88
2022/02/25 05:42:25;;;;;;;18.42;10.43;;;-1.00;99.90;;;;;;5018622;28;20124;-87
2022/02/25 05:44:54;;;;;;;20.75;11.65;;;-0.90;99.90;;;;;;5036239;28;20507;-91
2022/02/25 05:47:20;;;;;;;21.30;11.45;;;-0.80;99.90;;;;;;5035222;28;20049;-88
2022/02/25 05:49:45;;;;;;;23.60;12.38;;;-0.80;99.90;;;;;;5035146;28;20472;-88
2022/02/25 05:52:11;;;;;;;27.63;13.70;;;-0.70;99.90;;;;;;5034743;28;20104;-88
2022/02/25 05:54:38;;;;;;;25.30;13.02;;;-0.60;99.90;;;;;;5035051;28;20025;-89
2022/02/25 05:57:03;;;;;;;24.20;12.30;;;-0.50;99.90;;;;;;5068469;28;20057;-88
2022/02/25 05:59:29;;;;;;;21.45;12.23;;;-0.40;99.90;;;;;;5035839;28;20490;-88
2022/02/25 06:01:55;;;;;;;21.63;11.65;;;-0.40;99.90;;;;;;5051061;28;20036;-88
2022/02/25 06:04:20;;;;;;;22.13;11.85;;;-0.30;99.90;;;;;;5052920;28;20052;-88
2022/02/25 06:06:47;;;;;;;19.80;11.68;;;-0.20;99.90;;;;;;5034805;28;20056;-88
2022/02/25 06:09:13;;;;;;;22.67;11.10;;;-0.20;99.90;;;;;;5035138;28;20456;-88
2022/02/25 06:11:43;;;;;;;17.27;10.90;;;-0.10;99.90;;;;;;5036530;28;20056;-88
2022/02/25 06:14:10;;;;;;;21.50;10.88;;;0.00;99.90;;;;;;5036050;28;20033;-88
2022/02/25 06:16:36;;;;;;;24.95;10.85;;;0.10;99.90;;;;;;5050996;28;20060;-88
2022/02/25 06:19:02;;;;;;;17.83;10.50;;;0.10;99.90;;;;;;5034421;28;20074;-88
2022/02/25 06:21:27;;;;;;;19.90;10.98;;;0.20;99.90;;;;;;5051028;28;20072;-88
2022/02/25 06:23:53;;;;;;;19.02;10.75;;;0.30;99.90;;;;;;5050431;28;20454;-88
2022/02/25 06:26:19;;;;;;;23.13;11.63;;;0.40;99.90;;;;;;5034554;28;20100;-88
2022/02/25 06:28:45;;;;;;;17.67;10.48;;;0.40;99.90;;;;;;5050752;28;20025;-88
2022/02/25 06:31:11;;;;;;;20.27;10.57;;;0.50;99.90;;;;;;5067560;28;20045;-88
2022/02/25 06:33:37;;;;;;;19.58;10.60;;;0.50;99.90;;;;;;5053555;28;20491;-88
2022/02/25 06:36:02;;;;;;;18.30;9.82;;;0.60;99.90;;;;;;5054660;28;20044;-89
2022/02/25 06:38:28;;;;;;;18.75;10.60;;;0.70;99.90;;;;;;5053416;28;20033;-90
2022/02/25 06:40:55;;;;;;;18.55;10.07;;;0.70;99.90;;;;;;5054030;28;20395;-90
2022/02/25 06:43:21;;;;;;;18.05;10.25;;;0.80;99.90;;;;;;5053630;28;20036;-88
2022/02/25 06:45:47;;;;;;;17.45;10.18;;;0.80;99.90;;;;;;5053482;28;20111;-88
2022/02/25 06:48:13;;;;;;;19.25;10.85;;;0.90;99.90;;;;;;5053997;28;20060;-88
2022/02/25 06:50:38;;;;;;;17.42;9.48;;;0.90;99.90;;;;;;5056461;28;20029;-88
2022/02/25 06:53:05;;;;;;;15.65;9.43;;;1.00;99.90;;;;;;5053532;28;20024;-88
2022/02/25 06:55:31;;;;;;;14.23;9.02;;;1.10;99.90;;;;;;5054645;28;20120;-88
2022/02/25 06:57:57;;;;;;;15.88;10.50;;;1.10;99.90;;;;;;5053585;28;20448;-88
2022/02/25 07:00:23;;;;;;;15.38;9.27;;;1.20;99.90;;;;;;5053707;28;20033;-89
2022/02/25 07:02:50;;;;;;;15.98;9.77;;;1.20;99.90;;;;;;5053743;28;20082;-89
2022/02/25 07:05:17;;;;;;;18.02;10.52;;;1.20;99.90;;;;;;5053149;28;20021;-88
2022/02/25 07:07:44;;;;;;;17.13;10.18;;;1.30;99.90;;;;;;5053477;28;20111;-88
2022/02/25 07:10:10;;;;;;;16.90;9.77;;;1.30;99.90;;;;;;5053277;28;20021;-88
2022/02/25 07:12:35;;;;;;;17.65;10.32;;;1.30;99.90;;;;;;5037076;28;20495;-88
2022/02/25 07:15:04;;;;;;;19.92;10.45;;;1.20;99.90;;;;;;5052805;28;20147;-88
2022/02/25 07:17:32;;;;;;;19.60;10.90;;;1.20;99.90;;;;;;5053472;28;20474;-89
2022/02/25 07:19:58;;;;;;;18.27;9.80;;;1.30;99.90;;;;;;5053950;28;20467;-88
2022/02/25 07:22:24;;;;;;;16.42;9.90;;;1.30;99.90;;;;;;5036667;28;20048;-89
2022/02/25 07:24:49;;;;;;;18.25;10.50;;;1.30;99.90;;;;;;5053681;28;20021;-88
2022/02/25 07:27:15;;;;;;;16.70;10.35;;;1.40;99.90;;;;;;5052960;28;20029;-89
2022/02/25 07:29:41;;;;;;;16.48;9.05;;;1.30;99.90;;;;;;5053018;28;20107;-88
2022/02/25 07:32:07;;;;;;;19.95;10.65;;;1.40;99.90;;;;;;5052964;28;20021;-89
2022/02/25 07:34:33;;;;;;;16.33;9.75;;;1.40;99.90;;;;;;5053008;28;20032;-87
2022/02/25 07:37:00;;;;;;;17.67;10.43;;;1.40;99.90;;;;;;5053073;28;20025;-88
2022/02/25 07:39:26;;;;;;;16.13;10.25;;;1.40;99.90;;;;;;5053449;28;20048;-88
2022/02/25 07:41:52;;;;;;;18.30;10.73;;;1.40;99.90;;;;;;5052821;28;20071;-89
2022/02/25 07:44:17;;;;;;;16.65;10.13;;;1.40;99.90;;;;;;5053062;28;20089;-90
2022/02/25 07:46:45;;;;;;;19.55;11.13;;;1.40;99.90;;;;;;5052836;28;20025;-90
2022/02/25 07:49:11;;;;;;;18.00;9.88;;;1.50;99.90;;;;;;5053443;28;20025;-90
2022/02/25 07:51:36;;;;;;;18.90;10.65;;;1.50;99.90;;;;;;5053114;28;20082;-90
2022/02/25 07:54:04;;;;;;;17.25;10.10;;;1.50;99.90;;;;;;5052906;28;20028;-90
2022/02/25 07:56:31;;;;;;;22.65;11.15;;;1.50;99.90;;;;;;5057333;28;20032;-89
2022/02/25 07:58:56;;;;;;;20.92;11.38;;;1.60;99.90;;;;;;5057383;28;20075;-89
2022/02/25 08:01:22;;;;;;;19.00;10.77;;;1.60;99.90;;;;;;5056979;28;20025;-90
2022/02/25 08:03:49;;;;;;;19.52;10.25;;;1.60;99.90;;;;;;5056697;28;20116;-90
2022/02/25 08:06:15;;;;;;;22.13;10.45;;;1.60;99.90;;;;;;5040657;28;20079;-90
2022/02/25 08:08:40;;;;;;;17.75;11.18;;;1.70;99.90;;;;;;5056771;28;20021;-90
2022/02/25 08:11:06;;;;;;;18.85;11.02;;;1.80;99.90;;;;;;5056721;28;20021;-89
2022/02/25 08:14:22;;;;;;;20.88;11.73;;;1.80;99.90;;;;;;5056923;28;20024;-89
2022/02/25 08:16:49;;;;;;;18.50;10.50;;;1.80;99.90;;;;;;5057914;28;20060;-90
2022/02/25 08:19:17;;;;;;;19.75;11.50;;;1.80;99.90;;;;;;5056774;28;20037;-89
2022/02/25 08:21:43;;;;;;;28.95;16.08;;;1.80;99.90;;;;;;5056363;28;20029;-90
2022/02/25 08:24:08;;;;;;;22.50;12.77;;;1.80;99.90;;;;;;5057638;28;20037;-89
2022/02/25 08:26:34;;;;;;;23.13;11.95;;;1.80;99.90;;;;;;5056335;28;20043;-90
2022/02/25 08:29:01;;;;;;;19.02;11.73;;;1.90;99.90;;;;;;5056475;28;20107;-89
2022/02/25 08:31:27;;;;;;;23.85;12.95;;;1.90;99.90;;;;;;5056510;28;20025;-92
2022/02/25 08:33:52;;;;;;;22.45;13.45;;;1.90;99.90;;;;;;5056326;28;20032;-92
2022/02/25 08:36:18;;;;;;;20.85;12.10;;;2.00;99.90;;;;;;5056224;28;20028;-93
2022/02/25 08:38:46;;;;;;;24.58;13.23;;;2.00;99.90;;;;;;5056581;28;20033;-91
2022/02/25 08:41:12;;;;;;;22.17;12.75;;;2.10;99.90;;;;;;5040096;28;20033;-90
2022/02/25 08:43:39;;;;;;;20.42;12.65;;;2.10;99.90;;;;;;5055968;28;20036;-89
2022/02/25 08:46:05;;;;;;;20.35;11.15;;;2.20;99.90;;;;;;5039974;28;20490;-90
2022/02/25 08:48:32;;;;;;;20.02;11.85;;;2.20;99.90;;;;;;5055104;28;20033;-90
2022/02/25 08:50:58;;;;;;;24.08;11.73;;;2.10;99.90;;;;;;5056231;28;20040;-91
2022/02/25 08:53:25;;;;;;;21.38;10.75;;;2.20;99.90;;;;;;5056046;28;20028;-91
2022/02/25 08:55:51;;;;;;;20.50;11.00;;;2.20;99.90;;;;;;5056905;28;20040;-91
2022/02/25 08:58:17;;;;;;;22.75;11.30;;;2.20;99.90;;;;;;5056029;28;20463;-89
2022/02/25 09:00:43;;;;;;;21.58;11.93;;;2.20;99.90;;;;;;5056768;28;20486;-89
2022/02/25 09:03:09;;;;;;;23.77;11.93;;;2.20;99.90;;;;;;5055493;28;20029;-91
2022/02/25 09:05:35;;;;;;;20.17;11.15;;;2.30;99.90;;;;;;5056042;28;20032;-90
2022/02/25 09:08:01;;;;;;;20.52;10.80;;;2.30;99.90;;;;;;5054598;28;20108;-91
2022/02/25 09:10:29;;;;;;;17.98;10.50;;;2.30;99.90;;;;;;5055942;28;20424;-91
2022/02/25 09:12:55;;;;;;;20.48;11.30;;;2.40;99.90;;;;;;5039455;28;20467;-91
2022/02/25 09:15:26;;;;;;;24.05;13.32;;;2.40;99.90;;;;;;5055505;28;20029;-91
2022/02/25 09:17:56;;;;;;;21.50;12.45;;;2.50;99.90;;;;;;5057336;28;20426;-92
2022/02/25 09:20:22;;;;;;;22.42;11.60;;;2.50;99.90;;;;;;5055769;28;20032;-92
2022/02/25 09:22:50;;;;;;;25.58;11.02;;;2.50;99.90;;;;;;5055367;28;20406;-92
2022/02/25 09:25:16;;;;;;;22.60;12.27;;;2.60;99.90;;;;;;5055456;28;20025;-89
2022/02/25 09:27:44;;;;;;;19.63;10.75;;;2.60;99.90;;;;;;5055433;28;20025;-89
2022/02/25 09:30:13;;;;;;;30.17;14.75;;;2.60;99.90;;;;;;5056543;28;20418;-90
2022/02/25 09:32:40;;;;;;;19.15;11.00;;;2.70;99.90;;;;;;5055242;28;20028;-90
2022/02/25 09:35:07;;;;;;;21.70;11.57;;;2.70;99.90;;;;;;5055769;28;20029;-92
2022/02/25 09:37:35;;;;;;;28.27;14.30;;;2.80;99.90;;;;;;5038319;28;20445;-89
2022/02/25 09:40:07;;;;;;;21.45;12.27;;;2.80;99.90;;;;;;5055408;28;20035;-89
2022/02/25 09:42:36;;;;;;;24.48;12.85;;;2.90;99.90;;;;;;5054796;28;20048;-92
2022/02/25 09:45:03;;;;;;;22.08;12.40;;;2.90;99.90;;;;;;5054885;28;20048;-91
2022/02/25 09:47:33;;;;;;;24.60;12.98;;;3.00;99.90;;;;;;5054678;28;20098;-91
2022/02/25 09:50:00;;;;;;;26.57;13.23;;;3.00;99.90;;;;;;5054895;28;20068;-91
2022/02/25 09:52:26;;;;;;;29.10;14.18;;;3.00;99.90;;;;;;5038496;28;20794;-90
2022/02/25 09:54:52;;;;;;;29.60;15.02;;;3.10;99.90;;;;;;5054750;28;20057;-90
2022/02/25 09:57:17;;;;;;;23.75;13.07;;;3.10;99.90;;;;;;5054820;28;20110;-91
2022/02/25 09:59:43;;;;;;;21.30;11.98;;;3.20;99.90;;;;;;5038331;28;20033;-90
2022/02/25 10:02:09;;;;;;;40.22;16.48;;;3.20;99.90;;;;;;5054597;28;20121;-89
2022/02/25 10:04:35;;;;;;;23.00;12.00;;;3.20;99.90;;;;;;5054322;28;20120;-91
2022/02/25 10:07:02;;;;;;;25.10;12.98;;;3.20;99.90;;;;;;5054259;28;20513;-91
2022/02/25 10:09:33;;;;;;;21.33;12.70;;;3.20;99.90;;;;;;5054414;28;20029;-91
2022/02/25 10:12:09;;;;;;;21.48;12.02;;;3.30;99.90;;;;;;5054372;28;20021;-91
2022/02/25 10:14:41;;;;;;;27.42;13.60;;;3.30;99.90;;;;;;5054336;28;20028;-90
2022/02/25 10:17:09;;;;;;;31.98;14.60;;;3.30;99.90;;;;;;5055341;28;20056;-91
2022/02/25 10:19:38;;;;;;;27.45;13.32;;;3.30;99.90;;;;;;5055523;28;20036;-90
2022/02/25 10:22:30;;;;;;;26.15;12.35;;;3.30;99.90;;;;;;5054030;28;20041;-92
2022/02/25 10:24:57;;;;;;;19.25;11.32;;;3.30;99.90;;;;;;5054558;28;20033;-91
2022/02/25 10:27:24;;;;;;;22.90;12.98;;;3.30;99.90;;;;;;5054760;28;20067;-91
2022/02/25 10:30:14;;;;;;;18.13;11.00;;;3.30;99.90;;;;;;5053938;28;20021;-92
2022/02/25 10:32:52;;;;;;;20.45;11.13;;;3.40;99.90;;;;;;5054014;28;20103;-91
2022/02/25 10:35:20;;;;;;;20.33;9.85;;;3.40;99.90;;;;;;5054158;28;20033;-92
2022/02/25 10:38:06;;;;;;;13.77;8.13;;;3.40;99.90;;;;;;5054345;28;20094;-93
2022/02/25 10:40:40;;;;;;;15.23;9.32;;;3.40;99.90;;;;;;5054076;28;20108;-91
2022/02/25 10:43:11;;;;;;;12.13;8.45;;;3.40;99.90;;;;;;5053919;28;20055;-92
2022/02/25 10:45:41;;;;;;;19.23;10.25;;;3.40;99.90;;;;;;5054082;28;20033;-92
2022/02/25 10:48:12;;;;;;;17.35;9.93;;;3.50;99.90;;;;;;5054895;28;20031;-91
2022/02/25 10:51:02;;;;;;;14.63;9.15;;;3.50;99.90;;;;;;5051607;28;20052;-93
2022/02/25 10:53:41;;;;;;;13.93;7.70;;;3.40;99.90;;;;;;5053681;28;20044;-93
2022/02/25 10:56:10;;;;;;;11.90;8.10;;;3.50;99.90;;;;;;5054846;28;20422;-93
2022/02/25 10:58:44;;;;;;;14.00;8.30;;;3.50;99.90;;;;;;5055070;28;20124;-92
2022/02/25 11:01:14;;;;;;;13.05;8.52;;;3.50;99.90;;;;;;5036891;28;20072;-92
2022/02/25 11:03:41;;;;;;;15.70;9.10;;;3.50;99.90;;;;;;5054344;28;20021;-93
2022/02/25 11:06:10;;;;;;;12.27;8.13;;;3.60;99.90;;;;;;5036468;28;20060;-93
2022/02/25 11:08:39;;;;;;;11.48;7.70;;;3.60;99.90;;;;;;5051153;28;20017;-93
2022/02/25 11:11:06;;;;;;;12.43;7.80;;;3.60;99.90;;;;;;5037061;28;20029;-93
2022/02/25 11:13:32;;;;;;;11.25;7.30;;;3.60;99.90;;;;;;5053545;28;20115;-93
2022/02/25 11:15:59;;;;;;;14.43;7.97;;;3.60;99.90;;;;;;5054328;28;20383;-92
2022/02/25 11:18:26;;;;;;;13.20;8.20;;;3.60;99.90;;;;;;5052662;28;20423;-92
2022/02/25 11:20:53;;;;;;;11.02;6.95;;;3.60;99.90;;;;;;5053890;28;20082;-91
2022/02/25 11:23:21;;;;;;;11.32;6.63;;;3.60;99.90;;;;;;5052586;28;20039;-91
2022/02/25 11:25:48;;;;;;;12.45;7.28;;;3.70;99.90;;;;;;5052521;28;20463;-91
2022/02/25 11:28:16;;;;;;;11.93;7.30;;;3.70;99.90;;;;;;5050244;28;20127;-91
2022/02/25 11:31:01;;;;;;;12.38;8.02;;;3.70;99.90;;;;;;5053272;28;20032;-93
2022/02/25 11:33:27;;;;;;;14.07;8.25;;;3.80;99.90;;;;;;5053546;28;20033;-92
2022/02/25 11:36:06;;;;;;;18.55;7.93;;;3.80;99.90;;;;;;5053215;28;20024;-92
2022/02/25 11:38:42;;;;;;;14.82;8.43;;;3.80;99.70;;;;;;5054077;28;20076;-90
2022/02/25 11:41:17;;;;;;;13.38;8.55;;;3.90;99.50;;;;;;5053309;28;20097;-91
2022/02/25 11:43:54;;;;;;;16.25;8.90;;;3.90;99.70;;;;;;5052503;28;20104;-91
2022/02/25 11:46:28;;;;;;;15.27;8.88;;;4.00;99.50;;;;;;5076519;28;20055;-91
2022/02/25 11:49:12;;;;;;;13.90;7.57;;;4.00;99.50;;;;;;5053440;28;20028;-90
2022/02/25 11:51:43;;;;;;;10.20;7.10;;;4.10;99.20;;;;;;5052393;28;20086;-90
2022/02/25 11:54:21;;;;;;;10.57;7.10;;;4.10;99.00;;;;;;5052441;28;20090;-90
2022/02/25 11:57:03;;;;;;;12.75;7.72;;;4.10;98.40;;;;;;5051180;28;20078;-90
2022/02/25 11:59:32;;;;;;;13.90;7.82;;;4.20;98.70;;;;;;5051124;28;20085;-89
2022/02/25 12:02:05;;;;;;;10.50;7.50;;;4.20;98.00;;;;;;5052247;28;20471;-89
2022/02/25 12:04:33;;;;;;;12.52;7.25;;;4.20;98.10;;;;;;5053615;28;20490;-89
2022/02/25 12:07:05;;;;;;;15.27;7.88;;;4.20;97.30;;;;;;5066211;28;20025;-88
2022/02/25 12:09:51;;;;;;;10.80;7.10;;;4.20;97.10;;;;;;5052273;28;20081;-88
2022/02/25 12:12:20;;;;;;;13.23;8.30;;;4.30;96.90;;;;;;5077481;28;20028;-89
2022/02/25 12:15:12;;;;;;;17.33;9.15;;;4.30;96.90;;;;;;5052819;28;20089;-89
2022/02/25 12:17:58;;;;;;;15.30;8.18;;;4.30;97.10;;;;;;5052760;28;20063;-89
2022/02/25 12:20:34;;;;;;;20.33;8.63;;;4.30;96.60;;;;;;5052774;28;20025;-89
2022/02/25 12:23:14;;;;;;;11.88;7.78;;;4.40;96.60;;;;;;5052486;28;20047;-90
2022/02/25 12:25:39;;;;;;;10.35;7.03;;;4.40;95.80;;;;;;5052753;28;20104;-89
2022/02/25 12:28:22;;;;;;;12.10;7.15;;;4.40;96.70;;;;;;5053129;28;20060;-89
2022/02/25 12:31:02;;;;;;;11.13;7.35;;;4.50;96.20;;;;;;5052597;28;20394;-90
2022/02/25 12:33:43;;;;;;;12.23;6.97;;;4.50;95.10;;;;;;5052552;28;20032;-91
2022/02/25 12:36:22;;;;;;;10.75;6.90;;;4.50;95.20;;;;;;5052556;28;20029;-91
2022/02/25 12:38:55;;;;;;;10.90;7.45;;;4.60;95.70;;;;;;5052264;28;20410;-91
2022/02/25 12:41:26;;;;;;;11.70;7.63;;;4.60;95.20;;;;;;5052629;28;20029;-91
2022/02/25 12:44:08;;;;;;;9.80;6.70;;;4.70;95.00;;;;;;5055905;28;20025;-90
2022/02/25 12:46:38;;;;;;;8.48;5.80;;;4.70;94.40;;;;;;5056468;28;20052;-93